| Date | Time | Temp. (oF) | Dew Point (oF) | Rel. Hum. (%) | Press. (in.) | Wind Dir. | Wind Speed (mph) | Hourly Rainfall (in.) |
|
|---|---|---|---|---|---|---|---|---|---|
| 1 | 12/30 | 00:00 | 27 | 24 | 92 | 30.29 | WSW | 0 | 0.00 |
| 2 | 12/29 | 23:00 | 29 | 26 | 92 | 30.29 | WSW | 1 | 0.00 |
| 3 | 12/29 | 22:00 | 28 | 25 | 90 | 30.28 | SW | 2 | 0.00 |
| 4 | 12/29 | 21:00 | 30 | 26 | 86 | 30.26 | WSW | 2 | 0.00 |
| 5 | 12/29 | 20:00 | 32 | 26 | 81 | 30.25 | W | 1 | 0.00 |
| 6 | 12/29 | 19:00 | 34 | 28 | 79 | 30.23 | WSW | 2 | 0.00 |
| 7 | 12/29 | 18:00 | 35 | 27 | 74 | 30.21 | WSW | 2 | 0.00 |
| 8 | 12/29 | 17:00 | 37 | 27 | 69 | 30.17 | WNW | 5 | 0.00 |
| 9 | 12/29 | 16:00 | 41 | 29 | 63 | 30.15 | WNW | 4 | 0.00 |
| 10 | 12/29 | 15:00 | 42 | 29 | 60 | 30.13 | WNW | 7 | 0.00 |
| 11 | 12/29 | 14:00 | 42 | 29 | 61 | 30.11 | NW | 5 | 0.00 |
| 12 | 12/29 | 13:00 | 41 | 29 | 63 | 30.11 | W | 14 | 0.00 |
| 13 | 12/29 | 12:00 | 41 | 29 | 64 | 30.12 | WNW | 10 | 0.00 |
| 14 | 12/29 | 11:00 | 40 | 32 | 73 | 30.13 | W | 7 | 0.00 |
| 15 | 12/29 | 10:00 | 38 | 32 | 82 | 30.13 | W | 10 | 0.00 |
| 16 | 12/29 | 09:00 | 34 | 33 | 100 | 30.10 | W | 5 | 0.00 |
| 17 | 12/29 | 08:00 | 30 | 30 | 100 | 30.08 | W | 2 | 0.00 |
| 18 | 12/29 | 07:00 | 25 | 24 | 100 | 30.05 | NW | 0 | 0.00 |
| 19 | 12/29 | 06:00 | 26 | 26 | 100 | 30.03 | NW | 1 | 0.00 |
| 20 | 12/29 | 05:00 | 23 | 23 | 100 | 30.00 | SW | 1 | 0.00 |
| 21 | 12/29 | 04:00 | 25 | 24 | 100 | 29.99 | NNE | 1 | 0.00 |
| 22 | 12/29 | 03:00 | 28 | 27 | 100 | 29.98 | NE | 0 | 0.00 |
| 23 | 12/29 | 02:00 | 29 | 28 | 100 | 29.97 | WSW | 0 | 0.00 |
| 24 | 12/29 | 01:00 | 32 | 32 | 100 | 29.95 | SW | 1 | 0.00 |